x

South Georgian Bay (45143) Wave Buoy

7:00am - Tue 26th Jul 2016 All times are CDT. -5 hours from GMT.

  • Sig Wave height 2.3ft
  • Peak Period 4s
  • Wind
    13mph, 16mph gusts
  • Sea Temp 69°f
  • Air Temp 68°f
  • Sea Pressure 1015.1mb
  • South Georgian Bay
  • South Georgian Bay

More Historic Weather Station data

Upgrade to MSW Pro to gain access to the past 30 days of data for over 8000 Wavebouys and Weather Stations around the globe.

Join Pro

Comparision Forecast

View Surf forecast
   
Tue 07/26 7:00am 2.5ft 4s 13 16 mph 1015.1mb 69f 68f
6:00am 2.5ft 4s 16 18 mph 1015mb 69f 67f
5:00am 2.5ft 4s 16 18 mph 1014.4mb 69f 68f
4:00am 3.5ft 5s 16 20 mph 1014.2mb 69f 67f
3:00am 3.5ft 5s 18 22 mph 1013.9mb 69f 67f
2:00am 4ft 5s 18 25 mph 1013.4mb 69f 68f
1:00am 4ft 5s 20 25 mph 1013.2mb 69f 68f
12:00am 4ft 5s 20 22 mph 1012.9mb 69f 68f
Mon 07/25 11:00pm 4ft 5s 20 25 mph 1012.5mb 69f 68f
10:00pm 3.5ft 5s 22 27 mph 1011.9mb 69f 69f
9:00pm 3.5ft 4s 22 27 mph 1011.6mb 70f 70f
8:00pm 3.5ft 4s 22 27 mph 1011.2mb 70f 71f
7:00pm 3ft 4s 20 22 mph 1010.7mb 70f 71f
6:00pm 2.5ft 4s 16 20 mph 1010.2mb 70f 72f
5:00pm 2.5ft 4s 13 16 mph 1010mb 70f 72f
4:00pm 1.6ft 3s 16 18 mph 1010mb 70f 73f
3:00pm 1.6ft 3s 11 13 mph 1010mb 70f 73f
2:00pm 1.6ft 3s 13 16 mph 1010.1mb 70f 73f
1:00pm 1.3ft 3s 13 16 mph 1009.9mb 70f 73f
12:00pm 1.3ft 3s 11 13 mph 1010.1mb 70f 72f
11:00am 1ft 3s 13 16 mph 1010.1mb 70f 71f
10:00am 1ft 2s 9 11 mph 1010.1mb 69f 70f
9:00am 1.3ft 2s 11 13 mph 1010mb 69f 70f
8:00am 1ft 2s 16 20 mph 1009.5mb 69f 70f
7:00am 1ft 3s 11
mph
1009.1mb 69f 70f
6:00am 1ft 3s 9
mph
1008.2mb 69f 71f
5:00am 1.3ft 3s 11
mph
1008.3mb 69f 71f
4:00am 1.3ft 3s 18 22 mph 1007.3mb 69f 72f
3:00am 1.6ft 3s 9
mph
1007.8mb 69f 71f
2:00am 2ft 3s 13 18 mph 1008.3mb 69f 71f
1:00am 0.7ft 2s 16 18 mph 1008.1mb 69f 73f
12:00am 0.7ft 2s 11 16 mph 1009.3mb 69f 73f
Sun 07/24 11:00pm 0.7ft 2s 4 7 mph 1009.6mb 69f 71f
10:00pm 0.7ft 3s 11 13 mph 1010.1mb 69f 73f
9:00pm 1ft 3s 11 13 mph 1010.7mb 69f 74f
8:00pm 1ft 3s 9 11 mph 1011.1mb 69f 73f
7:00pm 1ft 3s 9
mph
1010.9mb 69f 73f
6:00pm 1ft 3s 7 9 mph 1011.3mb 69f 74f
5:00pm 1.3ft 4s 9 11 mph 1011.5mb 69f 72f
4:00pm 1.6ft 4s 11 13 mph 1011.7mb 69f 72f
3:00pm 1.6ft 4s 13 18 mph 1011.9mb 69f 73f
2:00pm 2ft 4s 16 18 mph 1012.3mb 69f 72f
1:00pm 2.5ft 4s 16 20 mph 1012.9mb 69f 72f
12:00pm 2.5ft 4s 13 18 mph 1013.9mb 69f 72f
11:00am 2.5ft 4s 16 18 mph 1013.9mb 69f 71f
10:00am 2.5ft 4s 16 20 mph 1014.2mb 69f 71f
9:00am 2.5ft 4s 18 22 mph 1014.9mb 69f 70f
8:00am 2ft 3s 18 22 mph 1015mb 69f 70f
7:00am 1.3ft 2s 18 20 mph 1015.3mb 70f 70f
6:00am 0.7ft 2s 13 16 mph 1015.3mb 69f 70f
5:00am 0.3ft 2s 9 11 mph 1015.7mb 70f 70f
4:00am 0.3ft 2s 9 11 mph 1015.5mb 70f 70f
3:00am 0.3ft 2s 7 9 mph 1015.8mb 70f 70f
2:00am 0.3ft 2s 7
mph
1015.5mb 70f 70f
1:00am 0.3ft 2s 7
mph
1015.5mb 70f 70f
12:00am 0.3ft 2s 4
mph
1015.4mb 70f 70f
Sat 07/23 11:00pm 0.3ft 2s 2
mph
1015.8mb 70f 70f
10:00pm 0.3ft 2s 4 7 mph 1015.7mb 70f 71f
9:00pm 0.3ft 2s 4 7 mph 1015.7mb 70f 70f
8:00pm 0.3ft 2s 4
mph
1015mb 70f 71f
7:00pm 0.3ft 2s 4 7 mph 1014.7mb 70f 71f
6:00pm 0.7ft 3s 4
mph
1014.3mb 71f 72f
5:00pm 0.7ft 2s 4
mph
1014.4mb 71f 72f
4:00pm 0.7ft 3s 9
mph
1015mb 70f 71f
3:00pm 1ft 3s 9 11 mph 1015.2mb 70f 70f
2:00pm 1ft 2s 9 11 mph 1014.8mb 70f 70f
1:00pm 1ft 3s 9 11 mph 1014.6mb 70f 69f
12:00pm 1ft 3s 9 11 mph 1014.8mb 69f 68f
11:00am 1ft 3s 9 11 mph 1014.7mb 69f 68f
10:00am 1.3ft 3s 9
mph
1014.1mb 69f 68f
9:00am 1.3ft 4s 11 13 mph 1014.1mb 69f 68f
8:00am 1.3ft 4s 9 11 mph 1013.7mb 69f 69f
7:00am 1.6ft 4s 9 13 mph 1013mb 68f 69f
6:00am 1.6ft 4s 11 13 mph 1012.6mb 68f 70f
5:00am 1.6ft 4s 11 13 mph 1012.2mb 68f 70f
4:00am 1.6ft 4s 11 13 mph 1012.3mb 68f 69f
3:00am 2ft 4s 13 16 mph 1012.3mb 68f 70f
2:00am 2.5ft 4s 16 18 mph 1011.7mb 68f 71f
1:00am 2.5ft 4s 18 20 mph 1011.3mb 68f 72f
12:00am 2.5ft 4s 20 25 mph 1011mb 68f 73f
Fri 07/22 11:00pm 2.5ft 4s 18 20 mph 1011.1mb 68f 73f
10:00pm 2.5ft 4s 18 20 mph 1011.2mb 68f 73f
9:00pm 2.5ft 4s 16 18 mph 1011mb 68f 72f
8:00pm 2.5ft 4s 16 18 mph 1010.7mb 68f 72f
7:00pm 2ft 3s 16 18 mph 1010.4mb 69f 73f
6:00pm 2ft 3s 13 16 mph 1010.4mb 69f 73f
5:00pm 2.5ft 4s 18 20 mph 1010.3mb 69f 73f
4:00pm 2.5ft 4s 18 22 mph 1010.7mb 69f 73f
3:00pm 2.5ft 4s 20 22 mph 1010.5mb 69f 73f